sensor_id;sensor_type;location;lat;lon;timestamp;temperature;humidity
13817;DHT22;6979;52.116;5.286;2023-11-18T00:00:38;9.90;99.90
13817;DHT22;6979;52.116;5.286;2023-11-18T00:03:05;9.90;99.90
13817;DHT22;6979;52.116;5.286;2023-11-18T00:05:31;9.90;99.90
13817;DHT22;6979;52.116;5.286;2023-11-18T00:07:59;9.90;99.90
13817;DHT22;6979;52.116;5.286;2023-11-18T00:10:26;9.90;99.90
13817;DHT22;6979;52.116;5.286;2023-11-18T00:12:55;9.90;99.90
13817;DHT22;6979;52.116;5.286;2023-11-18T00:15:21;9.90;99.90
13817;DHT22;6979;52.116;5.286;2023-11-18T00:17:48;9.80;99.90
13817;DHT22;6979;52.116;5.286;2023-11-18T00:20:15;9.80;99.90
13817;DHT22;6979;52.116;5.286;2023-11-18T00:22:44;9.80;99.90
13817;DHT22;6979;52.116;5.286;2023-11-18T00:25:12;9.80;99.90
13817;DHT22;6979;52.116;5.286;2023-11-18T00:27:39;9.80;99.90
13817;DHT22;6979;52.116;5.286;2023-11-18T00:30:07;9.80;99.90
13817;DHT22;6979;52.116;5.286;2023-11-18T00:32:36;9.80;99.90
13817;DHT22;6979;52.116;5.286;2023-11-18T00:35:05;9.80;99.90
13817;DHT22;6979;52.116;5.286;2023-11-18T00:37:32;9.70;99.90
13817;DHT22;6979;52.116;5.286;2023-11-18T00:39:59;9.70;99.90
13817;DHT22;6979;52.116;5.286;2023-11-18T00:42:28;9.70;99.90
13817;DHT22;6979;52.116;5.286;2023-11-18T00:44:55;9.70;99.90
13817;DHT22;6979;52.116;5.286;2023-11-18T00:47:23;9.70;99.90
13817;DHT22;6979;52.116;5.286;2023-11-18T00:49:49;9.70;99.90
13817;DHT22;6979;52.116;5.286;2023-11-18T00:52:18;9.80;99.90
13817;DHT22;6979;52.116;5.286;2023-11-18T00:54:45;9.80;99.90
13817;DHT22;6979;52.116;5.286;2023-11-18T00:57:12;9.80;99.90
13817;DHT22;6979;52.116;5.286;2023-11-18T00:59:43;9.80;99.90
13817;DHT22;6979;52.116;5.286;2023-11-18T01:02:10;9.80;99.90
13817;DHT22;6979;52.116;5.286;2023-11-18T01:04:37;9.80;99.90
13817;DHT22;6979;52.116;5.286;2023-11-18T01:07:04;9.80;99.90
13817;DHT22;6979;52.116;5.286;2023-11-18T01:09:31;9.90;99.90
13817;DHT22;6979;52.116;5.286;2023-11-18T01:12:03;9.90;99.90
13817;DHT22;6979;52.116;5.286;2023-11-18T01:14:32;9.90;99.90
13817;DHT22;6979;52.116;5.286;2023-11-18T01:17:01;9.90;99.90
13817;DHT22;6979;52.116;5.286;2023-11-18T01:19:28;10.00;99.90
13817;DHT22;6979;52.116;5.286;2023-11-18T01:21:55;10.00;99.90
13817;DHT22;6979;52.116;5.286;2023-11-18T01:24:23;10.00;99.90
13817;DHT22;6979;52.116;5.286;2023-11-18T01:26:50;10.00;99.90
13817;DHT22;6979;52.116;5.286;2023-11-18T01:29:17;10.00;99.90
13817;DHT22;6979;52.116;5.286;2023-11-18T01:31:47;10.00;99.90
13817;DHT22;6979;52.116;5.286;2023-11-18T01:34:15;10.00;99.90
13817;DHT22;6979;52.116;5.286;2023-11-18T01:36:42;10.00;99.90
13817;DHT22;6979;52.116;5.286;2023-11-18T01:39:09;10.00;99.90
13817;DHT22;6979;52.116;5.286;2023-11-18T01:41:38;10.00;99.90
13817;DHT22;6979;52.116;5.286;2023-11-18T01:44:05;10.00;99.90
13817;DHT22;6979;52.116;5.286;2023-11-18T01:46:34;10.00;99.90
13817;DHT22;6979;52.116;5.286;2023-11-18T01:49:02;10.00;99.90
13817;DHT22;6979;52.116;5.286;2023-11-18T01:51:30;10.00;99.90
13817;DHT22;6979;52.116;5.286;2023-11-18T01:53:59;10.00;99.90
13817;DHT22;6979;52.116;5.286;2023-11-18T01:56:27;10.10;99.90
13817;DHT22;6979;52.116;5.286;2023-11-18T01:58:54;10.10;99.90
13817;DHT22;6979;52.116;5.286;2023-11-18T02:01:25;10.10;99.90
13817;DHT22;6979;52.116;5.286;2023-11-18T02:03:53;10.10;99.90
13817;DHT22;6979;52.116;5.286;2023-11-18T02:06:20;10.10;99.90
13817;DHT22;6979;52.116;5.286;2023-11-18T02:08:48;10.10;99.90
13817;DHT22;6979;52.116;5.286;2023-11-18T02:11:22;10.10;99.90
13817;DHT22;6979;52.116;5.286;2023-11-18T02:13:53;10.10;99.90
13817;DHT22;6979;52.116;5.286;2023-11-18T02:16:26;10.20;99.90
13817;DHT22;6979;52.116;5.286;2023-11-18T02:18:53;10.20;99.90
13817;DHT22;6979;52.116;5.286;2023-11-18T02:21:21;10.20;99.90
13817;DHT22;6979;52.116;5.286;2023-11-18T02:23:50;10.20;99.90
13817;DHT22;6979;52.116;5.286;2023-11-18T02:26:23;10.20;99.90
13817;DHT22;6979;52.116;5.286;2023-11-18T02:28:51;10.20;99.90
13817;DHT22;6979;52.116;5.286;2023-11-18T02:31:24;10.30;99.90
13817;DHT22;6979;52.116;5.286;2023-11-18T02:33:59;10.30;99.90
13817;DHT22;6979;52.116;5.286;2023-11-18T02:36:32;10.20;99.90
13817;DHT22;6979;52.116;5.286;2023-11-18T02:39:04;10.30;99.90
13817;DHT22;6979;52.116;5.286;2023-11-18T02:41:35;10.30;99.90
13817;DHT22;6979;52.116;5.286;2023-11-18T02:44:03;10.30;99.90
13817;DHT22;6979;52.116;5.286;2023-11-18T02:46:34;10.30;99.90
13817;DHT22;6979;52.116;5.286;2023-11-18T02:49:01;10.30;99.90
13817;DHT22;6979;52.116;5.286;2023-11-18T02:51:29;10.30;99.90
13817;DHT22;6979;52.116;5.286;2023-11-18T02:53:57;10.30;99.90
13817;DHT22;6979;52.116;5.286;2023-11-18T02:56:24;10.30;99.90
13817;DHT22;6979;52.116;5.286;2023-11-18T02:58:53;10.30;99.90
13817;DHT22;6979;52.116;5.286;2023-11-18T03:01:20;10.20;99.90
13817;DHT22;6979;52.116;5.286;2023-11-18T03:03:46;10.20;99.90
13817;DHT22;6979;52.116;5.286;2023-11-18T03:06:13;10.20;99.90
13817;DHT22;6979;52.116;5.286;2023-11-18T03:08:41;10.20;99.90
13817;DHT22;6979;52.116;5.286;2023-11-18T03:11:08;10.20;99.90
13817;DHT22;6979;52.116;5.286;2023-11-18T03:13:35;10.20;99.90
13817;DHT22;6979;52.116;5.286;2023-11-18T03:16:08;10.20;99.90
13817;DHT22;6979;52.116;5.286;2023-11-18T03:18:38;10.20;99.90
13817;DHT22;6979;52.116;5.286;2023-11-18T03:21:06;10.20;99.90
13817;DHT22;6979;52.116;5.286;2023-11-18T03:23:33;10.20;99.90
13817;DHT22;6979;52.116;5.286;2023-11-18T03:26:02;10.20;99.90
13817;DHT22;6979;52.116;5.286;2023-11-18T03:28:30;10.20;99.90
13817;DHT22;6979;52.116;5.286;2023-11-18T03:30:57;10.20;99.90
13817;DHT22;6979;52.116;5.286;2023-11-18T03:33:25;10.20;99.90
13817;DHT22;6979;52.116;5.286;2023-11-18T03:35:52;10.20;99.90
13817;DHT22;6979;52.116;5.286;2023-11-18T03:38:21;10.20;99.90
13817;DHT22;6979;52.116;5.286;2023-11-18T03:40:49;10.20;99.90
13817;DHT22;6979;52.116;5.286;2023-11-18T03:43:17;10.20;99.90
13817;DHT22;6979;52.116;5.286;2023-11-18T03:45:43;10.20;99.90
13817;DHT22;6979;52.116;5.286;2023-11-18T03:48:10;10.20;99.90
13817;DHT22;6979;52.116;5.286;2023-11-18T03:50:41;10.20;99.90
13817;DHT22;6979;52.116;5.286;2023-11-18T03:53:11;10.20;99.90
13817;DHT22;6979;52.116;5.286;2023-11-18T03:55:37;10.20;99.90
13817;DHT22;6979;52.116;5.286;2023-11-18T03:58:04;10.20;99.90
13817;DHT22;6979;52.116;5.286;2023-11-18T04:00:31;10.20;99.90
13817;DHT22;6979;52.116;5.286;2023-11-18T04:02:58;10.20;99.90
13817;DHT22;6979;52.116;5.286;2023-11-18T04:05:25;10.20;99.90
13817;DHT22;6979;52.116;5.286;2023-11-18T04:07:53;10.20;99.90
13817;DHT22;6979;52.116;5.286;2023-11-18T04:10:20;10.20;99.90
13817;DHT22;6979;52.116;5.286;2023-11-18T04:12:48;10.20;99.90
13817;DHT22;6979;52.116;5.286;2023-11-18T04:15:15;10.20;99.90
13817;DHT22;6979;52.116;5.286;2023-11-18T04:17:42;10.20;99.90
13817;DHT22;6979;52.116;5.286;2023-11-18T04:20:11;10.20;99.90
13817;DHT22;6979;52.116;5.286;2023-11-18T04:22:40;10.30;99.90
13817;DHT22;6979;52.116;5.286;2023-11-18T04:25:09;10.30;99.90
13817;DHT22;6979;52.116;5.286;2023-11-18T04:27:37;10.30;99.90
13817;DHT22;6979;52.116;5.286;2023-11-18T04:30:04;10.30;99.90
13817;DHT22;6979;52.116;5.286;2023-11-18T04:32:32;10.30;99.90
13817;DHT22;6979;52.116;5.286;2023-11-18T04:34:59;10.20;99.90
13817;DHT22;6979;52.116;5.286;2023-11-18T04:37:32;10.30;99.90
13817;DHT22;6979;52.116;5.286;2023-11-18T04:39:59;10.30;99.90
13817;DHT22;6979;52.116;5.286;2023-11-18T04:42:27;10.30;99.90
13817;DHT22;6979;52.116;5.286;2023-11-18T04:44:55;10.30;99.90
13817;DHT22;6979;52.116;5.286;2023-11-18T04:47:22;10.40;99.90
13817;DHT22;6979;52.116;5.286;2023-11-18T04:49:50;10.40;99.90
13817;DHT22;6979;52.116;5.286;2023-11-18T04:52:17;10.40;99.90
13817;DHT22;6979;52.116;5.286;2023-11-18T04:54:47;10.40;99.90
13817;DHT22;6979;52.116;5.286;2023-11-18T04:57:14;10.40;99.90
13817;DHT22;6979;52.116;5.286;2023-11-18T04:59:43;10.40;99.90
13817;DHT22;6979;52.116;5.286;2023-11-18T05:02:10;10.40;99.90
13817;DHT22;6979;52.116;5.286;2023-11-18T05:04:37;10.40;99.90
13817;DHT22;6979;52.116;5.286;2023-11-18T05:07:04;10.40;99.90
13817;DHT22;6979;52.116;5.286;2023-11-18T05:09:32;10.50;99.90
13817;DHT22;6979;52.116;5.286;2023-11-18T05:12:00;10.50;99.90
13817;DHT22;6979;52.116;5.286;2023-11-18T05:14:28;10.50;99.90
13817;DHT22;6979;52.116;5.286;2023-11-18T05:16:56;10.50;99.90
13817;DHT22;6979;52.116;5.286;2023-11-18T05:19:23;10.50;99.90
13817;DHT22;6979;52.116;5.286;2023-11-18T05:21:50;10.60;99.90
13817;DHT22;6979;52.116;5.286;2023-11-18T05:24:17;10.60;99.90
13817;DHT22;6979;52.116;5.286;2023-11-18T05:26:44;10.60;99.90
13817;DHT22;6979;52.116;5.286;2023-11-18T05:29:11;10.60;99.90
13817;DHT22;6979;52.116;5.286;2023-11-18T05:31:42;10.60;99.90
13817;DHT22;6979;52.116;5.286;2023-11-18T05:34:12;10.60;99.90
13817;DHT22;6979;52.116;5.286;2023-11-18T05:36:39;10.60;99.90
13817;DHT22;6979;52.116;5.286;2023-11-18T05:39:06;10.50;99.90
13817;DHT22;6979;52.116;5.286;2023-11-18T05:41:34;10.50;99.90
13817;DHT22;6979;52.116;5.286;2023-11-18T05:44:05;10.50;99.90
13817;DHT22;6979;52.116;5.286;2023-11-18T05:46:34;10.50;99.90
13817;DHT22;6979;52.116;5.286;2023-11-18T05:49:02;10.50;99.90
13817;DHT22;6979;52.116;5.286;2023-11-18T05:51:34;10.50;99.90
13817;DHT22;6979;52.116;5.286;2023-11-18T05:54:01;10.50;99.90
13817;DHT22;6979;52.116;5.286;2023-11-18T05:56:28;10.50;99.90
13817;DHT22;6979;52.116;5.286;2023-11-18T05:58:55;10.50;99.90
13817;DHT22;6979;52.116;5.286;2023-11-18T06:01:21;10.50;99.90
13817;DHT22;6979;52.116;5.286;2023-11-18T06:03:48;10.60;99.90
13817;DHT22;6979;52.116;5.286;2023-11-18T06:06:16;10.50;99.90
13817;DHT22;6979;52.116;5.286;2023-11-18T06:08:45;10.60;99.90
13817;DHT22;6979;52.116;5.286;2023-11-18T06:11:14;10.60;99.90
13817;DHT22;6979;52.116;5.286;2023-11-18T06:13:42;10.60;99.90
13817;DHT22;6979;52.116;5.286;2023-11-18T06:16:13;10.60;99.90
13817;DHT22;6979;52.116;5.286;2023-11-18T06:18:41;10.60;99.90
13817;DHT22;6979;52.116;5.286;2023-11-18T06:21:13;10.60;99.90
13817;DHT22;6979;52.116;5.286;2023-11-18T06:23:40;10.60;99.90
13817;DHT22;6979;52.116;5.286;2023-11-18T06:26:09;10.60;99.90
13817;DHT22;6979;52.116;5.286;2023-11-18T06:28:38;10.60;99.90
13817;DHT22;6979;52.116;5.286;2023-11-18T06:31:05;10.60;99.90
13817;DHT22;6979;52.116;5.286;2023-11-18T06:33:38;10.60;99.90
13817;DHT22;6979;52.116;5.286;2023-11-18T06:36:17;10.60;99.90
13817;DHT22;6979;52.116;5.286;2023-11-18T06:38:44;10.60;99.90
13817;DHT22;6979;52.116;5.286;2023-11-18T06:41:12;10.60;99.90
13817;DHT22;6979;52.116;5.286;2023-11-18T06:43:42;10.60;99.90
13817;DHT22;6979;52.116;5.286;2023-11-18T06:46:18;10.60;99.90
13817;DHT22;6979;52.116;5.286;2023-11-18T06:48:47;10.60;99.90
13817;DHT22;6979;52.116;5.286;2023-11-18T06:51:15;10.60;99.90
13817;DHT22;6979;52.116;5.286;2023-11-18T06:53:42;10.60;99.90
13817;DHT22;6979;52.116;5.286;2023-11-18T06:56:10;10.60;99.90
13817;DHT22;6979;52.116;5.286;2023-11-18T06:58:38;10.60;99.90
13817;DHT22;6979;52.116;5.286;2023-11-18T07:01:06;10.60;99.90
13817;DHT22;6979;52.116;5.286;2023-11-18T07:03:33;10.60;99.90
13817;DHT22;6979;52.116;5.286;2023-11-18T07:06:00;10.60;99.90
13817;DHT22;6979;52.116;5.286;2023-11-18T07:08:27;10.60;99.90
13817;DHT22;6979;52.116;5.286;2023-11-18T07:10:54;10.60;99.90
13817;DHT22;6979;52.116;5.286;2023-11-18T07:13:22;10.60;99.90
13817;DHT22;6979;52.116;5.286;2023-11-18T07:15:50;10.60;99.90
13817;DHT22;6979;52.116;5.286;2023-11-18T07:18:19;10.60;99.90
13817;DHT22;6979;52.116;5.286;2023-11-18T07:20:47;10.70;99.90
13817;DHT22;6979;52.116;5.286;2023-11-18T07:23:16;10.70;99.90
13817;DHT22;6979;52.116;5.286;2023-11-18T07:25:43;10.70;99.90
13817;DHT22;6979;52.116;5.286;2023-11-18T07:28:10;10.70;99.90
13817;DHT22;6979;52.116;5.286;2023-11-18T07:30:41;10.70;99.90
13817;DHT22;6979;52.116;5.286;2023-11-18T07:33:09;10.70;99.90
13817;DHT22;6979;52.116;5.286;2023-11-18T07:35:38;10.70;99.90
13817;DHT22;6979;52.116;5.286;2023-11-18T07:38:05;10.70;99.90
13817;DHT22;6979;52.116;5.286;2023-11-18T07:40:32;10.70;99.90
13817;DHT22;6979;52.116;5.286;2023-11-18T07:42:59;10.70;99.90
13817;DHT22;6979;52.116;5.286;2023-11-18T07:45:28;10.70;99.90
13817;DHT22;6979;52.116;5.286;2023-11-18T07:48:03;10.70;99.90
13817;DHT22;6979;52.116;5.286;2023-11-18T07:50:36;10.70;99.90
13817;DHT22;6979;52.116;5.286;2023-11-18T07:53:03;10.70;99.90
13817;DHT22;6979;52.116;5.286;2023-11-18T07:55:32;10.70;99.90
13817;DHT22;6979;52.116;5.286;2023-11-18T07:57:59;10.80;99.90
13817;DHT22;6979;52.116;5.286;2023-11-18T08:00:27;10.80;99.90
13817;DHT22;6979;52.116;5.286;2023-11-18T08:02:56;10.80;99.90
13817;DHT22;6979;52.116;5.286;2023-11-18T08:05:25;10.80;99.90
13817;DHT22;6979;52.116;5.286;2023-11-18T08:07:55;10.80;99.90
13817;DHT22;6979;52.116;5.286;2023-11-18T08:10:22;10.80;99.90
13817;DHT22;6979;52.116;5.286;2023-11-18T08:12:50;10.80;99.90
13817;DHT22;6979;52.116;5.286;2023-11-18T08:15:17;10.80;99.90
13817;DHT22;6979;52.116;5.286;2023-11-18T08:17:45;10.80;99.90
13817;DHT22;6979;52.116;5.286;2023-11-18T08:20:12;10.80;99.90
13817;DHT22;6979;52.116;5.286;2023-11-18T08:22:40;10.80;99.90
13817;DHT22;6979;52.116;5.286;2023-11-18T08:25:11;10.80;99.90
13817;DHT22;6979;52.116;5.286;2023-11-18T08:27:40;10.80;99.90
13817;DHT22;6979;52.116;5.286;2023-11-18T08:30:08;10.80;99.90
13817;DHT22;6979;52.116;5.286;2023-11-18T08:32:37;10.80;99.90
13817;DHT22;6979;52.116;5.286;2023-11-18T08:35:05;10.90;99.90
13817;DHT22;6979;52.116;5.286;2023-11-18T08:37:33;10.90;99.90
13817;DHT22;6979;52.116;5.286;2023-11-18T08:40:01;10.90;99.90
13817;DHT22;6979;52.116;5.286;2023-11-18T08:42:29;10.80;99.90
13817;DHT22;6979;52.116;5.286;2023-11-18T08:44:57;10.90;99.90
13817;DHT22;6979;52.116;5.286;2023-11-18T08:47:24;10.90;99.90
13817;DHT22;6979;52.116;5.286;2023-11-18T08:49:51;10.80;99.90
13817;DHT22;6979;52.116;5.286;2023-11-18T08:52:18;10.90;99.90
13817;DHT22;6979;52.116;5.286;2023-11-18T08:54:45;10.90;99.90
13817;DHT22;6979;52.116;5.286;2023-11-18T08:57:27;10.90;99.90
13817;DHT22;6979;52.116;5.286;2023-11-18T09:00:02;10.90;99.90
13817;DHT22;6979;52.116;5.286;2023-11-18T09:02:43;10.90;99.90
13817;DHT22;6979;52.116;5.286;2023-11-18T09:05:10;10.90;99.90
13817;DHT22;6979;52.116;5.286;2023-11-18T09:07:38;11.00;99.90
13817;DHT22;6979;52.116;5.286;2023-11-18T09:10:06;11.00;99.90
13817;DHT22;6979;52.116;5.286;2023-11-18T09:12:34;11.00;99.90
13817;DHT22;6979;52.116;5.286;2023-11-18T09:15:02;11.00;99.90
13817;DHT22;6979;52.116;5.286;2023-11-18T09:17:29;11.00;99.90
13817;DHT22;6979;52.116;5.286;2023-11-18T09:19:56;11.00;99.90
13817;DHT22;6979;52.116;5.286;2023-11-18T09:22:23;11.10;99.90
13817;DHT22;6979;52.116;5.286;2023-11-18T09:24:50;11.10;99.90
13817;DHT22;6979;52.116;5.286;2023-11-18T09:27:17;11.10;99.90
13817;DHT22;6979;52.116;5.286;2023-11-18T09:29:44;11.10;99.90
13817;DHT22;6979;52.116;5.286;2023-11-18T09:32:12;11.10;99.90
13817;DHT22;6979;52.116;5.286;2023-11-18T09:34:40;11.10;99.90
13817;DHT22;6979;52.116;5.286;2023-11-18T09:37:07;11.10;99.90
13817;DHT22;6979;52.116;5.286;2023-11-18T09:39:35;11.10;99.90
13817;DHT22;6979;52.116;5.286;2023-11-18T09:42:08;11.10;99.90
13817;DHT22;6979;52.116;5.286;2023-11-18T09:44:39;11.10;99.90
13817;DHT22;6979;52.116;5.286;2023-11-18T09:47:08;11.10;99.90
13817;DHT22;6979;52.116;5.286;2023-11-18T09:49:44;11.10;99.90
13817;DHT22;6979;52.116;5.286;2023-11-18T09:52:16;11.10;99.90
13817;DHT22;6979;52.116;5.286;2023-11-18T09:54:53;11.10;99.90
13817;DHT22;6979;52.116;5.286;2023-11-18T09:57:29;11.10;99.90
13817;DHT22;6979;52.116;5.286;2023-11-18T10:00:01;11.10;99.90
13817;DHT22;6979;52.116;5.286;2023-11-18T10:02:45;11.10;99.90
13817;DHT22;6979;52.116;5.286;2023-11-18T10:05:13;11.00;99.90
13817;DHT22;6979;52.116;5.286;2023-11-18T10:07:41;11.00;99.90
13817;DHT22;6979;52.116;5.286;2023-11-18T10:10:09;11.00;99.90
13817;DHT22;6979;52.116;5.286;2023-11-18T10:12:41;11.00;99.90
13817;DHT22;6979;52.116;5.286;2023-11-18T10:15:12;11.00;99.90
13817;DHT22;6979;52.116;5.286;2023-11-18T10:17:42;11.00;99.90
13817;DHT22;6979;52.116;5.286;2023-11-18T10:20:22;11.00;99.90
13817;DHT22;6979;52.116;5.286;2023-11-18T10:23:06;11.00;99.90
13817;DHT22;6979;52.116;5.286;2023-11-18T10:25:35;11.00;99.90
13817;DHT22;6979;52.116;5.286;2023-11-18T10:28:06;11.00;99.90
13817;DHT22;6979;52.116;5.286;2023-11-18T10:30:43;11.10;99.90
13817;DHT22;6979;52.116;5.286;2023-11-18T10:33:14;11.10;99.90
13817;DHT22;6979;52.116;5.286;2023-11-18T10:35:50;11.10;99.90
13817;DHT22;6979;52.116;5.286;2023-11-18T10:38:22;11.10;99.90
13817;DHT22;6979;52.116;5.286;2023-11-18T10:40:53;11.10;99.90
13817;DHT22;6979;52.116;5.286;2023-11-18T10:43:20;11.10;99.90
13817;DHT22;6979;52.116;5.286;2023-11-18T10:45:51;11.10;99.90
13817;DHT22;6979;52.116;5.286;2023-11-18T10:48:18;11.10;99.90
13817;DHT22;6979;52.116;5.286;2023-11-18T10:50:47;11.20;99.90
13817;DHT22;6979;52.116;5.286;2023-11-18T10:53:18;11.20;99.90
13817;DHT22;6979;52.116;5.286;2023-11-18T10:55:45;11.20;99.90
13817;DHT22;6979;52.116;5.286;2023-11-18T10:58:12;11.20;99.90
13817;DHT22;6979;52.116;5.286;2023-11-18T11:00:47;11.20;99.90
13817;DHT22;6979;52.116;5.286;2023-11-18T11:03:14;11.20;99.90
13817;DHT22;6979;52.116;5.286;2023-11-18T11:05:41;11.20;99.90
13817;DHT22;6979;52.116;5.286;2023-11-18T11:08:12;11.30;99.90
13817;DHT22;6979;52.116;5.286;2023-11-18T11:10:41;11.30;99.90
13817;DHT22;6979;52.116;5.286;2023-11-18T11:13:09;11.30;99.90
13817;DHT22;6979;52.116;5.286;2023-11-18T11:15:41;11.30;99.90
13817;DHT22;6979;52.116;5.286;2023-11-18T11:18:12;11.30;99.90
13817;DHT22;6979;52.116;5.286;2023-11-18T11:20:57;11.30;99.90
13817;DHT22;6979;52.116;5.286;2023-11-18T11:23:35;11.30;99.90
13817;DHT22;6979;52.116;5.286;2023-11-18T11:26:23;11.30;99.90
13817;DHT22;6979;52.116;5.286;2023-11-18T11:29:00;11.30;99.90
13817;DHT22;6979;52.116;5.286;2023-11-18T11:31:34;11.40;99.90
13817;DHT22;6979;52.116;5.286;2023-11-18T11:34:04;11.40;99.90
13817;DHT22;6979;52.116;5.286;2023-11-18T11:36:37;11.40;99.90
13817;DHT22;6979;52.116;5.286;2023-11-18T11:39:07;11.40;99.90
13817;DHT22;6979;52.116;5.286;2023-11-18T11:41:44;11.40;99.90
13817;DHT22;6979;52.116;5.286;2023-11-18T11:44:13;11.40;99.90
13817;DHT22;6979;52.116;5.286;2023-11-18T11:46:40;11.40;99.90
13817;DHT22;6979;52.116;5.286;2023-11-18T11:49:09;11.40;99.90
13817;DHT22;6979;52.116;5.286;2023-11-18T11:51:46;11.50;99.90
13817;DHT22;6979;52.116;5.286;2023-11-18T11:54:20;11.50;99.90
13817;DHT22;6979;52.116;5.286;2023-11-18T11:56:49;11.50;99.90
13817;DHT22;6979;52.116;5.286;2023-11-18T11:59:35;11.50;99.90
13817;DHT22;6979;52.116;5.286;2023-11-18T12:02:06;11.50;99.90
13817;DHT22;6979;52.116;5.286;2023-11-18T12:04:36;11.60;99.90
13817;DHT22;6979;52.116;5.286;2023-11-18T12:07:05;11.60;99.90
13817;DHT22;6979;52.116;5.286;2023-11-18T12:09:35;11.60;99.90
13817;DHT22;6979;52.116;5.286;2023-11-18T12:12:13;11.60;99.90
13817;DHT22;6979;52.116;5.286;2023-11-18T12:14:51;11.60;99.90
13817;DHT22;6979;52.116;5.286;2023-11-18T12:17:21;11.60;99.90
13817;DHT22;6979;52.116;5.286;2023-11-18T12:19:50;11.60;99.90
13817;DHT22;6979;52.116;5.286;2023-11-18T12:22:24;11.70;99.90
13817;DHT22;6979;52.116;5.286;2023-11-18T12:28:10;11.70;99.90
13817;DHT22;6979;52.116;5.286;2023-11-18T12:30:41;11.70;99.90
13817;DHT22;6979;52.116;5.286;2023-11-18T12:33:18;11.80;99.90
13817;DHT22;6979;52.116;5.286;2023-11-18T12:39:09;11.80;99.90
13817;DHT22;6979;52.116;5.286;2023-11-18T12:41:43;11.80;99.90
13817;DHT22;6979;52.116;5.286;2023-11-18T12:44:30;11.80;99.90
13817;DHT22;6979;52.116;5.286;2023-11-18T12:47:00;11.90;99.90
13817;DHT22;6979;52.116;5.286;2023-11-18T12:49:40;11.90;99.90
13817;DHT22;6979;52.116;5.286;2023-11-18T12:52:10;11.90;99.90
13817;DHT22;6979;52.116;5.286;2023-11-18T12:54:41;11.90;99.90
13817;DHT22;6979;52.116;5.286;2023-11-18T12:57:09;11.90;99.90
13817;DHT22;6979;52.116;5.286;2023-11-18T12:59:41;11.90;99.90
13817;DHT22;6979;52.116;5.286;2023-11-18T13:02:09;11.90;99.90
13817;DHT22;6979;52.116;5.286;2023-11-18T13:04:39;11.90;99.90
13817;DHT22;6979;52.116;5.286;2023-11-18T13:07:06;11.90;99.90
13817;DHT22;6979;52.116;5.286;2023-11-18T13:09:37;11.90;99.90
13817;DHT22;6979;52.116;5.286;2023-11-18T13:12:07;11.90;99.90
13817;DHT22;6979;52.116;5.286;2023-11-18T13:14:35;11.90;99.90
13817;DHT22;6979;52.116;5.286;2023-11-18T13:17:04;11.90;99.90
13817;DHT22;6979;52.116;5.286;2023-11-18T13:19:32;12.00;99.90
13817;DHT22;6979;52.116;5.286;2023-11-18T13:22:00;12.00;99.90
13817;DHT22;6979;52.116;5.286;2023-11-18T13:24:29;12.00;99.90
13817;DHT22;6979;52.116;5.286;2023-11-18T13:26:58;12.00;99.90
13817;DHT22;6979;52.116;5.286;2023-11-18T13:29:29;12.00;99.90
13817;DHT22;6979;52.116;5.286;2023-11-18T13:31:56;12.00;99.90
13817;DHT22;6979;52.116;5.286;2023-11-18T13:34:25;12.00;99.90
13817;DHT22;6979;52.116;5.286;2023-11-18T13:36:53;12.00;99.90
13817;DHT22;6979;52.116;5.286;2023-11-18T13:39:20;12.00;99.90
13817;DHT22;6979;52.116;5.286;2023-11-18T13:41:49;12.10;99.90
13817;DHT22;6979;52.116;5.286;2023-11-18T13:44:31;12.10;99.90
13817;DHT22;6979;52.116;5.286;2023-11-18T13:47:01;12.10;99.90
13817;DHT22;6979;52.116;5.286;2023-11-18T13:49:32;12.10;99.90
13817;DHT22;6979;52.116;5.286;2023-11-18T13:52:00;12.10;99.90
13817;DHT22;6979;52.116;5.286;2023-11-18T13:54:27;12.10;99.90
13817;DHT22;6979;52.116;5.286;2023-11-18T13:57:01;12.20;99.90
13817;DHT22;6979;52.116;5.286;2023-11-18T13:59:30;12.10;99.90
13817;DHT22;6979;52.116;5.286;2023-11-18T14:01:58;12.20;99.90
13817;DHT22;6979;52.116;5.286;2023-11-18T14:04:28;12.20;99.90
13817;DHT22;6979;52.116;5.286;2023-11-18T14:06:59;12.20;99.90
13817;DHT22;6979;52.116;5.286;2023-11-18T14:09:27;12.20;99.90
13817;DHT22;6979;52.116;5.286;2023-11-18T14:11:56;12.20;99.90
13817;DHT22;6979;52.116;5.286;2023-11-18T14:14:23;12.20;99.90
13817;DHT22;6979;52.116;5.286;2023-11-18T14:16:50;12.20;99.90
13817;DHT22;6979;52.116;5.286;2023-11-18T14:19:18;12.20;99.90
13817;DHT22;6979;52.116;5.286;2023-11-18T14:21:45;12.20;99.90
13817;DHT22;6979;52.116;5.286;2023-11-18T14:24:14;12.20;99.90
13817;DHT22;6979;52.116;5.286;2023-11-18T14:26:40;12.20;99.90
13817;DHT22;6979;52.116;5.286;2023-11-18T14:29:07;12.20;99.90
13817;DHT22;6979;52.116;5.286;2023-11-18T14:31:34;12.20;99.90
13817;DHT22;6979;52.116;5.286;2023-11-18T14:34:01;12.20;99.90
13817;DHT22;6979;52.116;5.286;2023-11-18T14:36:29;12.20;99.90
13817;DHT22;6979;52.116;5.286;2023-11-18T14:38:57;12.20;99.90
13817;DHT22;6979;52.116;5.286;2023-11-18T14:41:26;12.20;99.90
13817;DHT22;6979;52.116;5.286;2023-11-18T14:43:55;12.30;99.90
13817;DHT22;6979;52.116;5.286;2023-11-18T14:46:23;12.30;99.90
13817;DHT22;6979;52.116;5.286;2023-11-18T14:48:50;12.30;99.90
13817;DHT22;6979;52.116;5.286;2023-11-18T14:51:17;12.20;99.90
13817;DHT22;6979;52.116;5.286;2023-11-18T14:53:44;12.30;99.90
13817;DHT22;6979;52.116;5.286;2023-11-18T14:56:10;12.30;99.90
13817;DHT22;6979;52.116;5.286;2023-11-18T14:58:39;12.30;99.90
13817;DHT22;6979;52.116;5.286;2023-11-18T15:01:05;12.30;99.90
13817;DHT22;6979;52.116;5.286;2023-11-18T15:03:33;12.30;99.90
13817;DHT22;6979;52.116;5.286;2023-11-18T15:06:00;12.30;99.90
13817;DHT22;6979;52.116;5.286;2023-11-18T15:08:27;12.30;99.90
13817;DHT22;6979;52.116;5.286;2023-11-18T15:10:56;12.30;99.90
13817;DHT22;6979;52.116;5.286;2023-11-18T15:13:24;12.30;99.90
13817;DHT22;6979;52.116;5.286;2023-11-18T15:15:52;12.30;99.90
13817;DHT22;6979;52.116;5.286;2023-11-18T15:18:20;12.30;99.90
13817;DHT22;6979;52.116;5.286;2023-11-18T15:20:48;12.30;99.90
13817;DHT22;6979;52.116;5.286;2023-11-18T15:23:16;12.30;99.90
13817;DHT22;6979;52.116;5.286;2023-11-18T15:25:45;12.30;99.90
13817;DHT22;6979;52.116;5.286;2023-11-18T15:28:11;12.40;99.90
13817;DHT22;6979;52.116;5.286;2023-11-18T15:30:40;12.40;99.90
13817;DHT22;6979;52.116;5.286;2023-11-18T15:33:08;12.40;99.90
13817;DHT22;6979;52.116;5.286;2023-11-18T15:35:35;12.40;99.90
13817;DHT22;6979;52.116;5.286;2023-11-18T15:38:03;12.40;99.90
13817;DHT22;6979;52.116;5.286;2023-11-18T15:40:31;12.40;99.90
13817;DHT22;6979;52.116;5.286;2023-11-18T15:42:58;12.40;99.90
13817;DHT22;6979;52.116;5.286;2023-11-18T15:45:25;12.40;99.90
13817;DHT22;6979;52.116;5.286;2023-11-18T15:47:54;12.40;99.90
13817;DHT22;6979;52.116;5.286;2023-11-18T15:50:22;12.40;99.90
13817;DHT22;6979;52.116;5.286;2023-11-18T15:52:50;12.40;99.90
13817;DHT22;6979;52.116;5.286;2023-11-18T15:55:17;12.40;99.90
13817;DHT22;6979;52.116;5.286;2023-11-18T15:57:47;12.40;99.90
13817;DHT22;6979;52.116;5.286;2023-11-18T16:00:19;12.40;99.90
13817;DHT22;6979;52.116;5.286;2023-11-18T16:02:47;12.40;99.90
13817;DHT22;6979;52.116;5.286;2023-11-18T16:05:14;12.50;99.90